createdAt,value
2017-03-27T12:14:33.893Z,99.90
2017-03-27T12:15:37.729Z,99.90
2017-03-27T12:16:42.357Z,99.90
2017-03-27T12:17:47.123Z,99.90
2017-03-27T12:18:50.822Z,99.90
2017-03-27T12:19:54.699Z,99.90
2017-03-27T12:20:58.779Z,99.90
2017-03-27T12:22:02.369Z,99.90
2017-03-27T12:23:06.248Z,99.90
2017-03-27T12:24:10.293Z,99.90
2017-03-27T12:25:14.471Z,99.60
2017-03-27T12:26:18.428Z,99.50
2017-03-27T12:27:22.391Z,99.60
2017-03-27T12:28:27.378Z,98.20
2017-03-27T12:29:31.310Z,99.30
2017-03-27T12:30:35.328Z,99.20
2017-03-27T12:31:39.279Z,99.40
2017-03-27T12:32:42.968Z,99.50
2017-03-27T12:33:47.449Z,99.10
2017-03-27T12:34:51.265Z,99.10
2017-03-27T12:35:55.526Z,98.60
2017-03-27T12:37:13.869Z,98.20
2017-03-27T12:38:17.038Z,98.20
2017-03-27T12:39:21.011Z,98.00
2017-03-27T12:40:25.836Z,98.00
2017-03-27T12:41:29.638Z,98.40
2017-03-27T12:42:33.621Z,99.00
2017-03-27T12:43:37.162Z,98.40
2017-03-27T12:44:41.072Z,98.70
2017-03-27T12:45:44.734Z,99.20
2017-03-27T12:46:48.630Z,98.90
2017-03-27T12:47:52.528Z,98.40
2017-03-27T12:48:56.490Z,98.40
2017-03-27T12:50:00.121Z,99.00
2017-03-27T12:51:04.868Z,99.10
2017-03-27T12:52:08.759Z,98.60
2017-03-27T12:53:12.507Z,98.10
2017-03-27T12:54:16.641Z,98.50
2017-03-27T12:55:20.723Z,98.70
2017-03-27T12:56:24.850Z,98.50
2017-03-27T12:57:28.728Z,98.50
2017-03-27T12:58:32.680Z,98.40
2017-03-27T12:59:36.576Z,98.60
2017-03-27T13:00:40.513Z,98.60
2017-03-27T13:01:44.279Z,98.40
2017-03-27T13:02:48.048Z,98.30
2017-03-27T13:03:51.787Z,98.20
2017-03-27T13:04:55.427Z,98.00
2017-03-27T13:05:59.308Z,98.00
2017-03-27T13:07:03.368Z,98.20
2017-03-27T13:08:07.000Z,98.10
2017-03-27T13:09:10.808Z,98.20
2017-03-27T13:10:14.567Z,98.20
2017-03-27T13:11:18.426Z,98.20
2017-03-27T13:12:22.362Z,98.40
2017-03-27T13:13:26.131Z,98.50
2017-03-27T13:14:29.932Z,98.20
2017-03-27T13:15:34.746Z,98.00
2017-03-27T13:16:38.585Z,98.00
2017-03-27T13:17:42.463Z,97.70
2017-03-27T13:18:46.093Z,98.10
2017-03-27T13:19:50.228Z,97.70
2017-03-27T13:20:54.186Z,97.90
2017-03-27T13:21:58.007Z,97.80
2017-03-27T13:23:01.171Z,97.70
2017-03-27T13:24:04.834Z,97.90
2017-03-27T13:25:08.592Z,97.80
2017-03-27T13:26:12.198Z,96.70
2017-03-27T13:27:15.986Z,97.00
2017-03-27T13:28:19.883Z,97.20
2017-03-27T13:29:23.761Z,96.70
2017-03-27T13:30:27.640Z,97.30
2017-03-27T13:31:31.232Z,97.30
2017-03-27T13:32:35.161Z,97.10
2017-03-27T13:33:40.400Z,97.30
2017-03-27T13:34:44.863Z,97.60
2017-03-27T13:35:48.685Z,97.50
2017-03-27T13:36:52.589Z,97.60
2017-03-27T13:37:56.656Z,97.90
2017-03-27T13:39:00.294Z,98.60
2017-03-27T13:40:04.299Z,98.40
2017-03-27T13:41:07.963Z,98.80
2017-03-27T13:42:11.872Z,98.70
2017-03-27T13:43:15.881Z,98.90
2017-03-27T13:44:19.689Z,98.80
2017-03-27T13:45:23.687Z,98.80
2017-03-27T13:46:27.745Z,98.90
2017-03-27T13:47:31.684Z,99.20
2017-03-27T13:48:35.673Z,99.10
2017-03-27T13:49:39.826Z,98.70
2017-03-27T13:50:43.628Z,98.90
2017-03-27T13:51:48.596Z,98.90
2017-03-27T13:52:52.094Z,99.30
2017-03-27T13:53:55.652Z,98.70
2017-03-27T13:54:59.660Z,98.80
2017-03-27T13:56:03.552Z,98.80
2017-03-27T13:57:07.612Z,98.80
2017-03-27T13:58:10.834Z,99.00
2017-03-27T13:59:14.436Z,98.90
2017-03-27T14:00:18.360Z,98.80
2017-03-27T14:01:22.027Z,98.90
2017-03-27T14:02:26.845Z,98.70
2017-03-27T14:03:30.468Z,98.90
2017-03-27T14:04:34.361Z,98.50
2017-03-27T14:05:38.260Z,98.80
2017-03-27T14:06:42.240Z,98.60
2017-03-27T14:07:45.952Z,98.60
2017-03-27T14:08:49.964Z,98.80
2017-03-27T14:09:53.891Z,98.90
2017-03-27T14:10:58.654Z,99.30
2017-03-27T14:12:02.072Z,99.40
2017-03-27T14:13:05.675Z,99.70
2017-03-27T14:14:09.454Z,99.70
2017-03-27T14:15:13.174Z,99.60
2017-03-27T14:16:17.231Z,99.60
2017-03-27T14:17:21.134Z,99.60
2017-03-27T14:18:24.938Z,98.80
2017-03-27T14:19:28.685Z,98.90
2017-03-27T14:20:32.334Z,98.80
2017-03-27T14:21:36.293Z,98.80
2017-03-27T14:22:40.254Z,99.10
2017-03-27T14:23:43.980Z,98.70
2017-03-27T14:24:47.626Z,98.70
2017-03-27T14:25:51.463Z,98.70
2017-03-27T14:26:55.423Z,98.60
2017-03-27T14:27:59.478Z,98.70
2017-03-27T14:29:03.304Z,98.70
2017-03-27T14:30:07.183Z,98.60
2017-03-27T14:31:11.008Z,98.70
2017-03-27T14:32:14.870Z,98.70
2017-03-27T14:33:18.582Z,98.80
2017-03-27T14:34:22.440Z,98.80
2017-03-27T14:35:26.231Z,98.80
2017-03-27T14:36:30.912Z,99.10
2017-03-27T14:37:34.684Z,99.30
2017-03-27T14:38:38.518Z,99.30
2017-03-27T14:39:42.176Z,99.30
2017-03-27T14:40:45.880Z,99.10
2017-03-27T14:41:49.841Z,99.10
2017-03-27T14:42:54.500Z,98.80
2017-03-27T14:43:58.089Z,98.80
2017-03-27T14:45:02.018Z,98.70
2017-03-27T14:46:05.831Z,98.60
2017-03-27T14:47:10.493Z,98.90
2017-03-27T14:48:14.395Z,98.80
2017-03-27T14:49:18.298Z,98.70
2017-03-27T14:50:22.218Z,98.50
2017-03-27T14:51:26.295Z,98.00
2017-03-27T14:52:31.475Z,98.20
2017-03-27T14:53:35.053Z,97.40
2017-03-27T14:54:39.696Z,97.40
2017-03-27T14:55:43.626Z,97.50
2017-03-27T14:56:47.685Z,97.50
2017-03-27T14:57:51.555Z,97.30
2017-03-27T14:58:55.340Z,97.40
2017-03-27T14:59:59.235Z,96.80
2017-03-27T15:01:03.868Z,96.60
2017-03-27T15:02:07.865Z,96.20
2017-03-27T15:03:11.345Z,96.20
2017-03-27T15:04:15.563Z,96.20
2017-03-27T15:05:19.159Z,96.40
2017-03-27T15:06:23.553Z,96.50
2017-03-27T15:07:27.465Z,96.70
2017-03-27T15:08:31.200Z,96.50
2017-03-27T15:09:35.238Z,96.40
2017-03-27T15:10:39.233Z,96.30
2017-03-27T15:11:43.080Z,96.30
2017-03-27T15:12:46.599Z,95.90
2017-03-27T15:13:50.498Z,96.10
2017-03-27T15:14:54.338Z,96.30
2017-03-27T15:15:58.301Z,96.10
2017-03-27T15:17:01.907Z,96.00
2017-03-27T15:18:05.474Z,96.80
2017-03-27T15:19:09.267Z,96.20
2017-03-27T15:20:12.960Z,96.50
2017-03-27T15:21:16.943Z,94.70
2017-03-27T15:22:21.160Z,93.80
2017-03-27T15:23:25.086Z,94.10
2017-03-27T15:24:29.128Z,92.10
2017-03-27T15:25:33.959Z,92.40
2017-03-27T15:26:37.671Z,92.20
2017-03-27T15:27:42.461Z,91.90
2017-03-27T15:28:46.636Z,91.90
2017-03-27T15:29:51.240Z,91.80
2017-03-27T15:30:54.883Z,92.00
2017-03-27T15:31:58.842Z,92.00
2017-03-27T15:33:02.898Z,92.20
2017-03-27T15:34:06.816Z,92.90
2017-03-27T15:35:10.423Z,92.90
2017-03-27T15:36:15.350Z,92.50
2017-03-27T15:37:19.127Z,92.50
2017-03-27T15:38:23.221Z,92.50
2017-03-27T15:39:26.927Z,92.30
2017-03-27T15:40:30.830Z,91.70
2017-03-27T15:41:34.379Z,92.00
2017-03-27T15:42:37.962Z,93.10
2017-03-27T15:43:41.379Z,91.60
2017-03-27T15:44:45.301Z,91.70
2017-03-27T15:45:49.266Z,91.80
2017-03-27T15:46:53.856Z,91.70
2017-03-27T15:47:58.252Z,91.20
2017-03-27T15:49:01.968Z,90.10
2017-03-27T15:50:05.770Z,90.70
2017-03-27T15:51:09.726Z,90.80
2017-03-27T15:52:13.648Z,90.50
2017-03-27T15:53:18.975Z,90.00
2017-03-27T15:54:22.736Z,90.50
2017-03-27T15:55:26.366Z,91.80
2017-03-27T15:56:31.246Z,91.80
2017-03-27T15:57:35.074Z,93.00
2017-03-27T15:58:39.610Z,91.50
2017-03-27T15:59:43.401Z,90.00
2017-03-27T16:00:47.904Z,89.50
2017-03-27T16:01:51.642Z,83.40
2017-03-27T16:02:55.533Z,85.60
2017-03-27T16:03:59.292Z,82.30
2017-03-27T16:05:03.867Z,83.10
2017-03-27T16:06:07.743Z,82.20
2017-03-27T16:07:11.486Z,79.80
2017-03-27T16:08:15.511Z,82.20
2017-03-27T16:09:20.112Z,83.70
2017-03-27T16:10:24.094Z,83.90
2017-03-27T16:11:28.918Z,81.80
2017-03-27T16:12:33.065Z,81.80
2017-03-27T16:13:37.220Z,83.00
2017-03-27T16:14:41.267Z,79.50
2017-03-27T16:15:45.182Z,81.30
2017-03-27T16:16:49.051Z,83.00
2017-03-27T16:17:52.953Z,80.90
2017-03-27T16:18:56.906Z,80.80
2017-03-27T16:20:00.619Z,81.60
2017-03-27T16:21:04.710Z,83.80
2017-03-27T16:22:08.689Z,82.80
2017-03-27T16:23:12.327Z,83.40
2017-03-27T16:24:16.145Z,83.80
2017-03-27T16:25:19.717Z,85.30
2017-03-27T16:26:23.363Z,84.30
2017-03-27T16:27:28.074Z,87.10
2017-03-27T16:28:31.733Z,83.70
2017-03-27T16:29:35.215Z,83.70
2017-03-27T16:30:38.988Z,88.30
2017-03-27T16:31:42.786Z,87.00
2017-03-27T16:32:47.181Z,85.70
2017-03-27T16:33:51.064Z,87.60
2017-03-27T16:34:58.133Z,87.00
2017-03-27T16:36:02.047Z,85.80
2017-03-27T16:37:05.961Z,88.00
2017-03-27T16:38:09.824Z,85.60
2017-03-27T16:39:13.646Z,80.60
2017-03-27T16:40:17.554Z,82.70
2017-03-27T16:41:21.398Z,80.40
2017-03-27T16:42:25.618Z,82.10
2017-03-27T16:43:29.765Z,78.80
2017-03-27T16:44:33.811Z,78.40
2017-03-27T16:45:37.685Z,80.10
2017-03-27T16:46:41.372Z,79.50
2017-03-27T16:47:45.898Z,78.20
2017-03-27T16:48:49.776Z,80.40
2017-03-27T16:49:54.282Z,77.90
2017-03-27T16:50:58.107Z,76.00
2017-03-27T16:52:02.029Z,77.30
2017-03-27T16:53:06.149Z,76.20
2017-03-27T16:54:10.828Z,74.10
2017-03-27T16:55:14.356Z,73.50
2017-03-27T16:56:18.114Z,74.80
2017-03-27T16:57:21.639Z,75.50
2017-03-27T16:58:25.565Z,73.00
2017-03-27T16:59:30.298Z,73.40
2017-03-27T17:00:33.871Z,73.80
2017-03-27T17:01:37.906Z,74.40
2017-03-27T17:02:41.730Z,70.40
2017-03-27T17:03:45.664Z,70.30
2017-03-27T17:04:49.420Z,70.50
2017-03-27T17:05:53.406Z,67.50
2017-03-27T17:06:57.059Z,68.50
2017-03-27T17:08:00.670Z,68.50
2017-03-27T17:09:04.787Z,66.20
2017-03-27T17:10:09.373Z,67.40
2017-03-27T17:11:12.998Z,64.70
2017-03-27T17:12:17.091Z,65.90
2017-03-27T17:13:21.131Z,63.60
2017-03-27T17:14:25.350Z,66.50
2017-03-27T17:15:30.202Z,65.00
2017-03-27T17:16:33.933Z,65.10
2017-03-27T17:17:37.615Z,65.60
2017-03-27T17:18:41.410Z,63.20
2017-03-27T17:19:45.207Z,66.00
2017-03-27T17:20:49.029Z,64.60
2017-03-27T17:21:53.030Z,62.70
2017-03-27T17:22:56.891Z,65.20
2017-03-27T17:24:00.600Z,69.70
2017-03-27T17:25:04.547Z,66.20
2017-03-27T17:26:08.318Z,66.40
2017-03-27T17:27:12.238Z,66.50
2017-03-27T17:28:16.721Z,67.30
2017-03-27T17:29:20.501Z,68.10
2017-03-27T17:30:24.830Z,64.10
2017-03-27T17:31:28.765Z,65.60
2017-03-27T17:32:33.350Z,65.50
2017-03-27T17:33:36.856Z,66.80
2017-03-27T17:34:40.017Z,65.50
2017-03-27T17:35:43.786Z,66.80
2017-03-27T17:36:47.044Z,65.90
2017-03-27T17:37:50.159Z,66.10
2017-03-27T17:38:54.108Z,66.80
2017-03-27T17:39:57.910Z,66.60
2017-03-27T17:41:02.502Z,66.60
2017-03-27T17:42:06.250Z,64.30
2017-03-27T17:43:09.851Z,67.20
2017-03-27T17:44:13.838Z,66.90
2017-03-27T17:45:17.535Z,68.60
2017-03-27T17:46:21.364Z,67.20
2017-03-27T17:47:25.375Z,66.60
2017-03-27T17:48:29.185Z,66.50
2017-03-27T17:49:32.875Z,65.90
2017-03-27T17:50:37.347Z,64.60
2017-03-27T17:51:41.179Z,67.10
2017-03-27T17:52:45.072Z,67.70
2017-03-27T17:53:49.168Z,67.90
2017-03-27T17:54:53.547Z,65.30
2017-03-27T17:55:57.339Z,64.90
2017-03-27T17:57:01.275Z,64.90
2017-03-27T17:58:05.113Z,62.80
2017-03-27T17:59:08.804Z,63.10
2017-03-27T18:00:12.837Z,60.80
2017-03-27T18:01:17.058Z,60.30
2017-03-27T18:02:21.482Z,58.70
2017-03-27T18:03:25.152Z,60.00
2017-03-27T18:04:28.446Z,59.00
2017-03-27T18:05:32.428Z,60.40
2017-03-27T18:06:36.205Z,61.20
2017-03-27T18:07:39.820Z,64.20
2017-03-27T18:08:43.439Z,61.90
2017-03-27T18:09:46.908Z,61.40
2017-03-27T18:10:50.459Z,57.20
2017-03-27T18:11:55.646Z,58.90
2017-03-27T18:12:59.226Z,59.80
2017-03-27T18:14:03.191Z,60.20
2017-03-27T18:15:07.026Z,63.60
2017-03-27T18:16:11.105Z,57.70
2017-03-27T18:17:15.365Z,53.40
2017-03-27T18:18:19.436Z,58.50
2017-03-27T18:19:22.993Z,60.90
2017-03-27T18:20:26.593Z,60.40
2017-03-27T18:21:30.349Z,54.70
2017-03-27T18:22:33.934Z,60.10
2017-03-27T18:23:38.178Z,53.60
2017-03-27T18:24:42.128Z,54.60
2017-03-27T18:25:46.089Z,52.70
2017-03-27T18:26:49.588Z,52.10
2017-03-27T18:27:53.504Z,56.20
2017-03-27T18:28:57.382Z,54.70
2017-03-27T18:30:01.444Z,53.30
2017-03-27T18:31:05.554Z,57.60
2017-03-27T18:32:08.927Z,56.90
2017-03-27T18:33:13.052Z,60.40
2017-03-27T18:34:16.933Z,59.20
2017-03-27T18:35:20.788Z,57.90
2017-03-27T18:36:24.616Z,56.90
2017-03-27T18:37:28.629Z,56.60
2017-03-27T18:38:32.557Z,59.70
2017-03-27T18:39:36.570Z,59.00
2017-03-27T18:40:40.323Z,59.60
2017-03-27T18:41:44.225Z,57.50
2017-03-27T18:42:48.102Z,58.30
2017-03-27T18:43:52.757Z,61.60
2017-03-27T18:44:56.907Z,60.00
2017-03-27T18:46:00.986Z,61.80
2017-03-27T18:47:05.344Z,59.10
2017-03-27T18:48:09.586Z,60.20
2017-03-27T18:49:13.446Z,60.40
2017-03-27T18:50:18.200Z,64.00
2017-03-27T18:51:21.897Z,60.90
2017-03-27T18:52:25.846Z,64.10
2017-03-27T18:53:29.629Z,61.90
2017-03-27T18:54:34.263Z,61.70
2017-03-27T18:55:39.315Z,60.10
2017-03-27T18:56:43.369Z,62.10
2017-03-27T18:57:47.029Z,65.30
2017-03-27T18:58:50.593Z,67.70
2017-03-27T18:59:54.016Z,64.30
2017-03-27T19:00:57.725Z,65.00
2017-03-27T19:02:01.473Z,66.10
2017-03-27T19:03:05.144Z,64.20
2017-03-27T19:04:09.031Z,64.90
2017-03-27T19:05:12.736Z,65.10
2017-03-27T19:06:16.400Z,68.00
2017-03-27T19:07:20.112Z,66.20
2017-03-27T19:08:23.864Z,64.20
2017-03-27T19:09:27.686Z,64.20
2017-03-27T19:10:32.085Z,67.90
2017-03-27T19:11:36.183Z,66.10
2017-03-27T19:12:39.770Z,61.50
2017-03-27T19:13:43.952Z,61.80
2017-03-27T19:14:47.834Z,60.60
2017-03-27T19:15:51.620Z,59.70
2017-03-27T19:16:55.697Z,59.60
2017-03-27T19:17:59.487Z,59.90
2017-03-27T19:19:03.246Z,58.30
2017-03-27T19:20:07.441Z,54.70
2017-03-27T19:21:11.413Z,54.30
2017-03-27T19:22:15.252Z,54.20
2017-03-27T19:23:19.236Z,56.00
2017-03-27T19:24:37.881Z,56.00
2017-03-27T19:25:42.350Z,55.60
2017-03-27T19:26:46.375Z,59.50
2017-03-27T19:27:50.927Z,54.00
2017-03-27T19:28:54.624Z,55.60
2017-03-27T19:29:58.722Z,56.90
2017-03-27T19:31:03.615Z,54.70
2017-03-27T19:32:07.113Z,56.60
2017-03-27T19:33:11.622Z,58.40
2017-03-27T19:34:15.265Z,57.00
2017-03-27T19:35:21.075Z,55.40
2017-03-27T19:36:25.008Z,57.00
2017-03-27T19:37:29.061Z,47.60
2017-03-27T19:38:32.576Z,50.20
2017-03-27T19:39:37.407Z,52.00
2017-03-27T19:40:41.346Z,54.00
2017-03-27T19:41:46.116Z,50.00
2017-03-27T19:42:49.831Z,58.60
2017-03-27T19:43:53.533Z,54.40
2017-03-27T19:44:57.395Z,53.20
2017-03-27T19:46:01.396Z,50.60
2017-03-27T19:47:05.492Z,50.90
2017-03-27T19:48:09.092Z,47.60
2017-03-27T19:49:12.978Z,50.00
2017-03-27T19:50:17.157Z,50.60
2017-03-27T19:51:21.195Z,48.60
2017-03-27T19:52:24.890Z,46.80
2017-03-27T19:53:28.439Z,48.60
2017-03-27T19:54:32.118Z,47.70
2017-03-27T19:55:36.281Z,46.00
2017-03-27T19:56:41.217Z,46.90
2017-03-27T19:57:45.390Z,49.40
2017-03-27T19:58:48.857Z,48.40
2017-03-27T19:59:52.902Z,49.10
2017-03-27T20:00:57.273Z,46.70
2017-03-27T20:02:01.151Z,48.90
2017-03-27T20:03:05.741Z,50.70
2017-03-27T20:04:09.455Z,50.00
2017-03-27T20:05:13.386Z,50.20
2017-03-27T20:06:17.262Z,52.40
2017-03-27T20:07:21.095Z,52.40
2017-03-27T20:08:24.961Z,52.50
2017-03-27T20:09:28.899Z,51.00
2017-03-27T20:10:32.787Z,54.00
2017-03-27T20:11:36.565Z,55.80
2017-03-27T20:12:44.474Z,51.20
2017-03-27T20:13:47.644Z,59.40
2017-03-27T20:14:51.342Z,54.10
2017-03-27T20:15:54.704Z,54.50
2017-03-27T20:16:58.771Z,54.40
2017-03-27T20:18:02.633Z,56.30
2017-03-27T20:19:06.519Z,52.30
2017-03-27T20:20:10.818Z,50.50
2017-03-27T20:21:14.286Z,57.30
2017-03-27T20:22:18.454Z,55.20
2017-03-27T20:23:22.536Z,55.20
2017-03-27T20:24:26.595Z,57.20
2017-03-27T20:25:30.430Z,57.10
2017-03-27T20:26:34.401Z,61.30
2017-03-27T20:27:38.378Z,61.30
2017-03-27T20:28:42.930Z,62.20
2017-03-27T20:29:46.326Z,67.10
2017-03-27T20:30:50.062Z,65.60
2017-03-27T20:31:55.022Z,69.40
2017-03-27T20:32:58.864Z,66.20
2017-03-27T20:34:02.807Z,64.90
2017-03-27T20:35:07.066Z,64.70
2017-03-27T20:36:10.742Z,64.90
2017-03-27T20:37:14.503Z,64.40
2017-03-27T20:38:18.542Z,65.90
2017-03-27T20:39:22.301Z,67.20
2017-03-27T20:40:26.134Z,65.90
2017-03-27T20:41:29.938Z,63.70
2017-03-27T20:42:33.658Z,69.10
2017-03-27T20:43:37.420Z,70.90
2017-03-27T20:44:41.010Z,69.50
2017-03-27T20:45:44.667Z,63.30
2017-03-27T20:46:48.608Z,65.50
2017-03-27T20:47:52.184Z,64.70
2017-03-27T20:48:56.046Z,70.90
2017-03-27T20:50:00.593Z,67.20
2017-03-27T20:51:05.149Z,69.70
2017-03-27T20:52:08.830Z,63.80
2017-03-27T20:53:12.590Z,66.90
2017-03-27T20:54:16.544Z,61.30
2017-03-27T20:55:20.194Z,61.80
2017-03-27T20:56:24.645Z,62.70
2017-03-27T20:57:28.320Z,61.00
2017-03-27T20:58:32.361Z,63.00
2017-03-27T20:59:36.122Z,63.40
2017-03-27T21:00:40.293Z,60.70
2017-03-27T21:01:44.333Z,60.40
2017-03-27T21:02:48.100Z,62.70
2017-03-27T21:03:51.990Z,61.90
2017-03-27T21:04:55.887Z,62.90
2017-03-27T21:06:00.039Z,61.80
2017-03-27T21:07:04.057Z,59.30
2017-03-27T21:08:08.034Z,58.20
2017-03-27T21:09:11.800Z,61.90
2017-03-27T21:10:15.590Z,59.90
2017-03-27T21:11:19.386Z,59.70
2017-03-27T21:12:23.744Z,58.90
2017-03-27T21:13:27.567Z,56.50
2017-03-27T21:14:31.379Z,61.40
2017-03-27T21:15:35.243Z,59.10
2017-03-27T21:16:39.858Z,59.50
2017-03-27T21:17:43.884Z,61.10
2017-03-27T21:18:47.705Z,59.20
2017-03-27T21:19:51.605Z,58.20
2017-03-27T21:20:55.529Z,54.90
2017-03-27T21:21:59.582Z,58.20
2017-03-27T21:23:03.392Z,58.00
2017-03-27T21:24:07.493Z,58.10
2017-03-27T21:25:11.080Z,58.50
2017-03-27T21:26:14.943Z,59.50
2017-03-27T21:27:18.982Z,59.30
2017-03-27T21:28:22.697Z,61.50
2017-03-27T21:29:27.021Z,56.40
2017-03-27T21:30:30.779Z,61.10
2017-03-27T21:31:34.881Z,55.90
2017-03-27T21:32:38.633Z,59.40
2017-03-27T21:33:42.540Z,58.30
2017-03-27T21:34:46.086Z,56.20
2017-03-27T21:35:50.161Z,59.30
2017-03-27T21:36:54.009Z,58.00
2017-03-27T21:37:57.668Z,56.70
2017-03-27T21:39:01.868Z,59.60
2017-03-27T21:40:05.621Z,59.00
2017-03-27T21:41:09.181Z,57.80
2017-03-27T21:42:12.764Z,56.90
2017-03-27T21:43:16.653Z,60.40
2017-03-27T21:44:20.440Z,57.80
2017-03-27T21:45:24.528Z,60.70
2017-03-27T21:46:28.439Z,59.60
2017-03-27T21:47:35.045Z,55.20
2017-03-27T21:48:38.909Z,56.10
2017-03-27T21:49:42.562Z,55.90
2017-03-27T21:50:46.248Z,54.40
2017-03-27T21:51:51.746Z,55.30
2017-03-27T21:52:55.474Z,55.20
2017-03-27T21:53:58.993Z,57.20
2017-03-27T21:55:03.112Z,55.80
2017-03-27T21:56:06.599Z,58.30
2017-03-27T21:57:11.722Z,55.40
2017-03-27T21:58:15.685Z,56.70
2017-03-27T21:59:19.544Z,55.40
2017-03-27T22:00:23.495Z,57.70
2017-03-27T22:01:27.874Z,55.50
2017-03-27T22:02:32.637Z,55.30
2017-03-27T22:03:36.586Z,54.00
2017-03-27T22:04:40.521Z,56.20
2017-03-27T22:05:45.051Z,56.40
2017-03-27T22:06:49.257Z,59.90
2017-03-27T22:07:53.462Z,61.40
2017-03-27T22:08:57.225Z,62.80
2017-03-27T22:10:00.571Z,63.70
2017-03-27T22:11:05.527Z,64.30
2017-03-27T22:12:09.788Z,62.60
2017-03-27T22:13:15.885Z,63.30
2017-03-27T22:14:20.061Z,65.00
2017-03-27T22:15:25.174Z,64.30
2017-03-27T22:16:30.127Z,68.10
2017-03-27T22:17:33.919Z,67.20
2017-03-27T22:18:37.555Z,66.40
2017-03-27T22:19:41.373Z,67.40
2017-03-27T22:20:45.337Z,69.10
2017-03-27T22:21:49.407Z,66.90
2017-03-27T22:22:54.204Z,67.80
2017-03-27T22:23:58.103Z,72.60
2017-03-27T22:25:01.880Z,75.10
2017-03-27T22:26:05.432Z,76.50
2017-03-27T22:27:08.780Z,74.70
2017-03-27T22:28:11.908Z,75.60
2017-03-27T22:29:15.647Z,73.60
2017-03-27T22:30:19.480Z,74.90
2017-03-27T22:31:23.196Z,77.20
2017-03-27T22:32:26.994Z,76.20
2017-03-27T22:33:30.611Z,76.20
2017-03-27T22:34:35.046Z,77.50
2017-03-27T22:35:38.353Z,76.20
2017-03-27T22:36:42.188Z,76.00
2017-03-27T22:37:46.199Z,81.50
2017-03-27T22:38:49.878Z,78.30
2017-03-27T22:39:53.505Z,78.70
2017-03-27T22:40:57.494Z,77.70
2017-03-27T22:42:01.343Z,74.50
2017-03-27T22:43:05.346Z,76.10
2017-03-27T22:44:09.345Z,74.80
2017-03-27T22:45:13.007Z,70.90
2017-03-27T22:46:17.138Z,71.40
2017-03-27T22:47:20.946Z,75.00
2017-03-27T22:48:24.466Z,72.70
2017-03-27T22:49:28.278Z,76.60
2017-03-27T22:50:32.245Z,74.20
2017-03-27T22:51:36.149Z,69.80
2017-03-27T22:52:40.013Z,74.20
2017-03-27T22:53:44.642Z,68.40
2017-03-27T22:54:48.575Z,68.00
2017-03-27T22:55:52.599Z,69.70
2017-03-27T22:56:57.068Z,69.80
2017-03-27T22:58:01.760Z,68.20
2017-03-27T22:59:05.829Z,69.00
2017-03-27T23:00:10.017Z,68.10
2017-03-27T23:01:14.179Z,66.40
2017-03-27T23:02:18.291Z,68.70
2017-03-27T23:03:23.011Z,66.30
2017-03-27T23:04:26.779Z,66.40
2017-03-27T23:05:30.931Z,69.30
2017-03-27T23:06:34.618Z,67.50
2017-03-27T23:07:38.292Z,69.20
2017-03-27T23:08:42.266Z,67.80
2017-03-27T23:09:46.117Z,64.20
2017-03-27T23:10:50.021Z,63.50
2017-03-27T23:11:53.917Z,63.20
2017-03-27T23:12:57.990Z,63.20
2017-03-27T23:14:01.619Z,65.50
2017-03-27T23:15:05.481Z,65.70
2017-03-27T23:16:09.111Z,62.00
2017-03-27T23:17:13.047Z,65.80
2017-03-27T23:18:16.773Z,61.70
2017-03-27T23:19:21.333Z,61.20
2017-03-27T23:20:25.509Z,63.90
2017-03-27T23:21:30.238Z,62.40
2017-03-27T23:22:34.473Z,63.50
2017-03-27T23:23:38.319Z,60.00
2017-03-27T23:24:42.319Z,61.80
2017-03-27T23:25:46.045Z,63.00
2017-03-27T23:26:49.605Z,61.70
2017-03-27T23:27:53.242Z,60.00
2017-03-27T23:28:57.095Z,60.90
2017-03-27T23:30:01.032Z,62.50
2017-03-27T23:31:04.948Z,61.90
2017-03-27T23:32:08.899Z,62.10
2017-03-27T23:33:13.745Z,61.30
2017-03-27T23:34:17.536Z,59.70
2017-03-27T23:35:21.399Z,60.10
2017-03-27T23:36:25.178Z,58.70
2017-03-27T23:37:28.664Z,60.20
2017-03-27T23:38:32.563Z,61.80
2017-03-27T23:39:36.391Z,59.80
2017-03-27T23:40:40.192Z,59.40
2017-03-27T23:41:44.141Z,61.30
2017-03-27T23:42:48.644Z,60.30
2017-03-27T23:43:53.339Z,61.60
2017-03-27T23:44:56.991Z,61.20
2017-03-27T23:46:00.719Z,58.90
2017-03-27T23:47:04.654Z,59.50
2017-03-27T23:48:08.441Z,62.20
2017-03-27T23:49:12.427Z,60.50
2017-03-27T23:50:15.893Z,60.10
2017-03-27T23:51:19.688Z,60.20
2017-03-27T23:52:23.636Z,60.60
2017-03-27T23:53:27.350Z,58.50
2017-03-27T23:54:31.094Z,60.20
2017-03-27T23:55:34.803Z,60.70
2017-03-27T23:56:38.471Z,58.10
2017-03-27T23:57:42.367Z,59.80
2017-03-27T23:58:47.048Z,59.00
2017-03-27T23:59:51.073Z,57.60
